sensor_id;sensor_type;location;lat;lon;timestamp;temperature;humidity
73438;DHT22;62744;56.802;23.964;2022-10-16T00:01:27;12.00;94.50
73438;DHT22;62744;56.802;23.964;2022-10-16T00:03:57;12.10;94.00
73438;DHT22;62744;56.802;23.964;2022-10-16T00:06:25;12.00;94.40
73438;DHT22;62744;56.802;23.964;2022-10-16T00:08:53;11.90;94.20
73438;DHT22;62744;56.802;23.964;2022-10-16T00:11:30;11.90;94.80
73438;DHT22;62744;56.802;23.964;2022-10-16T00:13:59;11.90;94.70
73438;DHT22;62744;56.802;23.964;2022-10-16T00:16:28;11.90;94.70
73438;DHT22;62744;56.802;23.964;2022-10-16T00:18:56;12.00;94.40
73438;DHT22;62744;56.802;23.964;2022-10-16T00:21:26;12.10;94.60
73438;DHT22;62744;56.802;23.964;2022-10-16T00:24:00;12.00;94.40
73438;DHT22;62744;56.802;23.964;2022-10-16T00:26:29;12.10;94.00
73438;DHT22;62744;56.802;23.964;2022-10-16T00:28:57;12.20;94.20
73438;DHT22;62744;56.802;23.964;2022-10-16T00:31:25;12.10;94.50
73438;DHT22;62744;56.802;23.964;2022-10-16T00:33:53;12.00;94.60
73438;DHT22;62744;56.802;23.964;2022-10-16T00:36:24;12.00;94.30
73438;DHT22;62744;56.802;23.964;2022-10-16T00:38:56;12.10;94.30
73438;DHT22;62744;56.802;23.964;2022-10-16T00:41:25;12.00;94.30
73438;DHT22;62744;56.802;23.964;2022-10-16T00:43:56;12.20;94.50
73438;DHT22;62744;56.802;23.964;2022-10-16T00:46:41;12.10;94.20
73438;DHT22;62744;56.802;23.964;2022-10-16T00:49:14;12.10;93.80
73438;DHT22;62744;56.802;23.964;2022-10-16T00:51:45;12.10;94.20
73438;DHT22;62744;56.802;23.964;2022-10-16T00:54:22;12.20;94.10
73438;DHT22;62744;56.802;23.964;2022-10-16T00:56:51;12.10;93.80
73438;DHT22;62744;56.802;23.964;2022-10-16T00:59:27;12.10;94.00
73438;DHT22;62744;56.802;23.964;2022-10-16T01:01:56;12.10;94.30
73438;DHT22;62744;56.802;23.964;2022-10-16T01:04:25;12.10;94.20
73438;DHT22;62744;56.802;23.964;2022-10-16T01:10:06;12.10;94.80
73438;DHT22;62744;56.802;23.964;2022-10-16T01:15:13;12.00;94.90
73438;DHT22;62744;56.802;23.964;2022-10-16T01:17:49;12.10;95.40
73438;DHT22;62744;56.802;23.964;2022-10-16T01:20:45;11.90;95.80
73438;DHT22;62744;56.802;23.964;2022-10-16T01:23:36;12.10;95.60
73438;DHT22;62744;56.802;23.964;2022-10-16T01:29:15;11.80;96.60
73438;DHT22;62744;56.802;23.964;2022-10-16T01:31:51;12.00;96.70
73438;DHT22;62744;56.802;23.964;2022-10-16T01:34:32;11.80;97.20
73438;DHT22;62744;56.802;23.964;2022-10-16T01:37:07;12.00;96.80
73438;DHT22;62744;56.802;23.964;2022-10-16T01:39:39;12.10;96.60
73438;DHT22;62744;56.802;23.964;2022-10-16T01:42:25;12.00;97.10
73438;DHT22;62744;56.802;23.964;2022-10-16T01:44:56;12.00;97.50
73438;DHT22;62744;56.802;23.964;2022-10-16T01:47:25;12.00;96.90
73438;DHT22;62744;56.802;23.964;2022-10-16T01:49:55;12.10;97.10
73438;DHT22;62744;56.802;23.964;2022-10-16T01:52:26;12.00;97.60
73438;DHT22;62744;56.802;23.964;2022-10-16T01:54:56;12.00;97.50
73438;DHT22;62744;56.802;23.964;2022-10-16T01:57:25;12.00;97.50
73438;DHT22;62744;56.802;23.964;2022-10-16T01:59:57;12.10;97.60
73438;DHT22;62744;56.802;23.964;2022-10-16T02:02:28;12.10;97.30
73438;DHT22;62744;56.802;23.964;2022-10-16T02:05:04;12.00;97.40
73438;DHT22;62744;56.802;23.964;2022-10-16T02:07:32;12.10;97.70
73438;DHT22;62744;56.802;23.964;2022-10-16T02:10:00;12.10;97.80
73438;DHT22;62744;56.802;23.964;2022-10-16T02:12:31;12.20;97.60
73438;DHT22;62744;56.802;23.964;2022-10-16T02:15:00;12.00;98.00
73438;DHT22;62744;56.802;23.964;2022-10-16T02:17:28;12.10;98.10
73438;DHT22;62744;56.802;23.964;2022-10-16T02:19:56;12.10;97.70
73438;DHT22;62744;56.802;23.964;2022-10-16T02:22:32;12.20;97.90
73438;DHT22;62744;56.802;23.964;2022-10-16T02:25:26;12.20;98.00
73438;DHT22;62744;56.802;23.964;2022-10-16T02:28:06;12.20;97.80
73438;DHT22;62744;56.802;23.964;2022-10-16T02:30:42;12.10;97.80
73438;DHT22;62744;56.802;23.964;2022-10-16T02:33:13;12.20;97.90
73438;DHT22;62744;56.802;23.964;2022-10-16T02:35:43;12.20;97.90
73438;DHT22;62744;56.802;23.964;2022-10-16T02:38:12;12.20;98.00
73438;DHT22;62744;56.802;23.964;2022-10-16T02:40:41;12.20;97.90
73438;DHT22;62744;56.802;23.964;2022-10-16T02:43:09;12.30;98.30
73438;DHT22;62744;56.802;23.964;2022-10-16T02:45:37;12.40;97.90
73438;DHT22;62744;56.802;23.964;2022-10-16T02:48:05;12.30;98.10
73438;DHT22;62744;56.802;23.964;2022-10-16T02:50:33;12.30;98.30
73438;DHT22;62744;56.802;23.964;2022-10-16T02:53:01;12.30;98.20
73438;DHT22;62744;56.802;23.964;2022-10-16T02:55:28;12.40;98.20
73438;DHT22;62744;56.802;23.964;2022-10-16T02:57:56;12.30;98.30
73438;DHT22;62744;56.802;23.964;2022-10-16T03:00:23;12.50;97.70
73438;DHT22;62744;56.802;23.964;2022-10-16T03:02:51;12.50;97.90
73438;DHT22;62744;56.802;23.964;2022-10-16T03:05:18;12.50;98.20
73438;DHT22;62744;56.802;23.964;2022-10-16T03:07:46;12.40;98.30
73438;DHT22;62744;56.802;23.964;2022-10-16T03:10:13;12.50;98.10
73438;DHT22;62744;56.802;23.964;2022-10-16T03:12:40;12.50;97.90
73438;DHT22;62744;56.802;23.964;2022-10-16T03:15:09;12.50;98.40
73438;DHT22;62744;56.802;23.964;2022-10-16T03:17:37;12.60;98.40
73438;DHT22;62744;56.802;23.964;2022-10-16T03:20:05;12.50;98.40
73438;DHT22;62744;56.802;23.964;2022-10-16T03:22:32;12.60;98.50
73438;DHT22;62744;56.802;23.964;2022-10-16T03:25:00;12.60;98.20
73438;DHT22;62744;56.802;23.964;2022-10-16T03:27:27;12.60;97.80
73438;DHT22;62744;56.802;23.964;2022-10-16T03:29:55;12.60;98.60
73438;DHT22;62744;56.802;23.964;2022-10-16T03:32:22;12.70;97.50
73438;DHT22;62744;56.802;23.964;2022-10-16T03:34:52;12.70;96.90
73438;DHT22;62744;56.802;23.964;2022-10-16T03:37:21;12.70;98.50
73438;DHT22;62744;56.802;23.964;2022-10-16T03:39:48;12.80;97.20
73438;DHT22;62744;56.802;23.964;2022-10-16T03:42:16;12.80;96.90
73438;DHT22;62744;56.802;23.964;2022-10-16T03:44:43;12.80;97.20
73438;DHT22;62744;56.802;23.964;2022-10-16T03:47:10;12.80;97.00
73438;DHT22;62744;56.802;23.964;2022-10-16T03:49:38;12.90;96.80
73438;DHT22;62744;56.802;23.964;2022-10-16T03:52:05;12.80;97.10
73438;DHT22;62744;56.802;23.964;2022-10-16T03:54:33;12.80;97.40
73438;DHT22;62744;56.802;23.964;2022-10-16T03:57:00;12.80;97.40
73438;DHT22;62744;56.802;23.964;2022-10-16T03:59:27;12.80;97.10
73438;DHT22;62744;56.802;23.964;2022-10-16T04:01:55;12.80;97.30
73438;DHT22;62744;56.802;23.964;2022-10-16T04:04:22;12.90;97.30
73438;DHT22;62744;56.802;23.964;2022-10-16T04:06:50;12.90;97.20
73438;DHT22;62744;56.802;23.964;2022-10-16T04:09:17;13.00;97.30
73438;DHT22;62744;56.802;23.964;2022-10-16T04:11:44;12.90;97.70
73438;DHT22;62744;56.802;23.964;2022-10-16T04:14:12;13.00;97.70
73438;DHT22;62744;56.802;23.964;2022-10-16T04:16:39;13.00;97.70
73438;DHT22;62744;56.802;23.964;2022-10-16T04:19:07;12.90;97.80
73438;DHT22;62744;56.802;23.964;2022-10-16T04:21:34;13.00;97.80
73438;DHT22;62744;56.802;23.964;2022-10-16T04:24:01;13.00;97.90
73438;DHT22;62744;56.802;23.964;2022-10-16T04:26:29;13.00;98.20
73438;DHT22;62744;56.802;23.964;2022-10-16T04:28:56;13.00;98.50
73438;DHT22;62744;56.802;23.964;2022-10-16T04:31:24;13.00;98.40
73438;DHT22;62744;56.802;23.964;2022-10-16T04:33:52;12.80;98.10
73438;DHT22;62744;56.802;23.964;2022-10-16T04:36:19;12.90;99.00
73438;DHT22;62744;56.802;23.964;2022-10-16T04:38:51;12.90;98.60
73438;DHT22;62744;56.802;23.964;2022-10-16T04:41:18;12.80;98.80
73438;DHT22;62744;56.802;23.964;2022-10-16T04:43:45;12.90;99.20
73438;DHT22;62744;56.802;23.964;2022-10-16T04:46:12;12.90;99.30
73438;DHT22;62744;56.802;23.964;2022-10-16T04:48:39;12.90;99.30
73438;DHT22;62744;56.802;23.964;2022-10-16T04:51:07;12.90;99.40
73438;DHT22;62744;56.802;23.964;2022-10-16T04:53:34;12.90;99.60
73438;DHT22;62744;56.802;23.964;2022-10-16T04:56:02;12.80;99.40
73438;DHT22;62744;56.802;23.964;2022-10-16T04:58:29;12.80;99.70
73438;DHT22;62744;56.802;23.964;2022-10-16T05:00:57;12.90;99.90
73438;DHT22;62744;56.802;23.964;2022-10-16T05:03:24;12.80;99.60
73438;DHT22;62744;56.802;23.964;2022-10-16T05:05:51;12.80;99.60
73438;DHT22;62744;56.802;23.964;2022-10-16T05:08:19;13.00;99.90
73438;DHT22;62744;56.802;23.964;2022-10-16T05:10:46;12.90;99.70
73438;DHT22;62744;56.802;23.964;2022-10-16T05:13:14;12.90;99.60
73438;DHT22;62744;56.802;23.964;2022-10-16T05:15:41;12.90;99.70
73438;DHT22;62744;56.802;23.964;2022-10-16T05:18:09;13.00;99.80
73438;DHT22;62744;56.802;23.964;2022-10-16T05:20:36;12.90;99.30
73438;DHT22;62744;56.802;23.964;2022-10-16T05:23:03;12.90;99.20
73438;DHT22;62744;56.802;23.964;2022-10-16T05:25:31;13.00;99.60
73438;DHT22;62744;56.802;23.964;2022-10-16T05:27:58;13.00;99.70
73438;DHT22;62744;56.802;23.964;2022-10-16T05:30:26;12.90;99.40
73438;DHT22;62744;56.802;23.964;2022-10-16T05:32:53;13.00;99.80
73438;DHT22;62744;56.802;23.964;2022-10-16T05:35:21;13.00;99.50
73438;DHT22;62744;56.802;23.964;2022-10-16T05:37:48;13.00;99.50
73438;DHT22;62744;56.802;23.964;2022-10-16T05:40:16;13.10;99.30
73438;DHT22;62744;56.802;23.964;2022-10-16T05:42:44;13.10;98.80
73438;DHT22;62744;56.802;23.964;2022-10-16T05:45:11;13.10;98.80
73438;DHT22;62744;56.802;23.964;2022-10-16T05:47:39;13.10;98.40
73438;DHT22;62744;56.802;23.964;2022-10-16T05:50:07;13.10;99.00
73438;DHT22;62744;56.802;23.964;2022-10-16T05:52:35;13.10;98.80
73438;DHT22;62744;56.802;23.964;2022-10-16T05:55:02;13.20;98.80
73438;DHT22;62744;56.802;23.964;2022-10-16T05:57:30;13.10;98.80
73438;DHT22;62744;56.802;23.964;2022-10-16T05:59:58;13.20;98.70
73438;DHT22;62744;56.802;23.964;2022-10-16T06:02:25;13.20;98.20
73438;DHT22;62744;56.802;23.964;2022-10-16T06:04:52;13.20;98.20
73438;DHT22;62744;56.802;23.964;2022-10-16T06:07:21;13.30;98.30
73438;DHT22;62744;56.802;23.964;2022-10-16T06:09:51;13.40;98.50
73438;DHT22;62744;56.802;23.964;2022-10-16T06:12:19;13.30;98.60
73438;DHT22;62744;56.802;23.964;2022-10-16T06:14:47;13.20;98.60
73438;DHT22;62744;56.802;23.964;2022-10-16T06:17:14;13.30;98.40
73438;DHT22;62744;56.802;23.964;2022-10-16T06:19:42;13.40;98.20
73438;DHT22;62744;56.802;23.964;2022-10-16T06:22:09;13.40;98.40
73438;DHT22;62744;56.802;23.964;2022-10-16T06:24:37;13.40;98.00
73438;DHT22;62744;56.802;23.964;2022-10-16T06:27:05;13.40;98.10
73438;DHT22;62744;56.802;23.964;2022-10-16T06:29:32;13.40;98.20
73438;DHT22;62744;56.802;23.964;2022-10-16T06:31:59;13.40;98.40
73438;DHT22;62744;56.802;23.964;2022-10-16T06:34:27;13.50;97.90
73438;DHT22;62744;56.802;23.964;2022-10-16T06:36:54;13.50;98.00
73438;DHT22;62744;56.802;23.964;2022-10-16T06:39:22;13.60;97.70
73438;DHT22;62744;56.802;23.964;2022-10-16T06:41:49;13.60;97.20
73438;DHT22;62744;56.802;23.964;2022-10-16T06:44:17;13.60;97.10
73438;DHT22;62744;56.802;23.964;2022-10-16T06:46:45;13.50;97.20
73438;DHT22;62744;56.802;23.964;2022-10-16T06:49:13;13.60;97.00
73438;DHT22;62744;56.802;23.964;2022-10-16T06:51:42;13.60;96.90
73438;DHT22;62744;56.802;23.964;2022-10-16T06:54:10;13.60;97.40
73438;DHT22;62744;56.802;23.964;2022-10-16T06:56:38;13.60;97.00
73438;DHT22;62744;56.802;23.964;2022-10-16T06:59:05;13.60;97.10
73438;DHT22;62744;56.802;23.964;2022-10-16T07:01:34;13.70;97.30
73438;DHT22;62744;56.802;23.964;2022-10-16T07:04:03;13.50;97.10
73438;DHT22;62744;56.802;23.964;2022-10-16T07:06:32;13.60;97.10
73438;DHT22;62744;56.802;23.964;2022-10-16T07:09:05;13.60;97.30
73438;DHT22;62744;56.802;23.964;2022-10-16T07:11:34;13.70;97.00
73438;DHT22;62744;56.802;23.964;2022-10-16T07:14:03;13.70;96.50
73438;DHT22;62744;56.802;23.964;2022-10-16T07:16:32;13.60;96.00
73438;DHT22;62744;56.802;23.964;2022-10-16T07:19:01;13.70;96.80
73438;DHT22;62744;56.802;23.964;2022-10-16T07:21:31;13.70;96.80
73438;DHT22;62744;56.802;23.964;2022-10-16T07:24:05;13.60;96.30
73438;DHT22;62744;56.802;23.964;2022-10-16T07:26:35;13.60;96.50
73438;DHT22;62744;56.802;23.964;2022-10-16T07:29:03;13.70;96.80
73438;DHT22;62744;56.802;23.964;2022-10-16T07:31:32;13.70;96.60
73438;DHT22;62744;56.802;23.964;2022-10-16T07:34:00;13.70;96.50
73438;DHT22;62744;56.802;23.964;2022-10-16T07:36:28;13.70;96.50
73438;DHT22;62744;56.802;23.964;2022-10-16T07:38:55;13.80;96.30
73438;DHT22;62744;56.802;23.964;2022-10-16T07:41:26;13.80;96.10
73438;DHT22;62744;56.802;23.964;2022-10-16T07:43:55;13.80;96.30
73438;DHT22;62744;56.802;23.964;2022-10-16T07:46:24;13.80;95.90
73438;DHT22;62744;56.802;23.964;2022-10-16T07:48:51;13.90;95.80
73438;DHT22;62744;56.802;23.964;2022-10-16T07:51:22;13.90;96.30
73438;DHT22;62744;56.802;23.964;2022-10-16T07:53:49;13.90;96.10
73438;DHT22;62744;56.802;23.964;2022-10-16T07:56:19;13.80;96.40
73438;DHT22;62744;56.802;23.964;2022-10-16T07:58:47;14.00;96.20
73438;DHT22;62744;56.802;23.964;2022-10-16T08:01:17;14.00;96.00
73438;DHT22;62744;56.802;23.964;2022-10-16T08:03:47;14.00;95.60
73438;DHT22;62744;56.802;23.964;2022-10-16T08:06:17;14.10;95.50
73438;DHT22;62744;56.802;23.964;2022-10-16T08:08:51;14.20;95.40
73438;DHT22;62744;56.802;23.964;2022-10-16T08:11:19;14.20;95.00
73438;DHT22;62744;56.802;23.964;2022-10-16T08:13:46;14.60;94.60
73438;DHT22;62744;56.802;23.964;2022-10-16T08:16:13;14.70;93.40
73438;DHT22;62744;56.802;23.964;2022-10-16T08:18:41;14.70;93.50
73438;DHT22;62744;56.802;23.964;2022-10-16T08:21:14;14.60;94.20
73438;DHT22;62744;56.802;23.964;2022-10-16T08:23:47;14.50;93.90
73438;DHT22;62744;56.802;23.964;2022-10-16T08:26:25;14.50;93.90
73438;DHT22;62744;56.802;23.964;2022-10-16T08:28:54;14.60;93.70
73438;DHT22;62744;56.802;23.964;2022-10-16T08:31:22;14.50;94.20
73438;DHT22;62744;56.802;23.964;2022-10-16T08:33:50;14.40;94.20
73438;DHT22;62744;56.802;23.964;2022-10-16T08:36:19;14.40;94.40
73438;DHT22;62744;56.802;23.964;2022-10-16T08:38:50;14.30;94.80
73438;DHT22;62744;56.802;23.964;2022-10-16T08:41:22;14.40;94.70
73438;DHT22;62744;56.802;23.964;2022-10-16T08:49:36;14.50;94.70
73438;DHT22;62744;56.802;23.964;2022-10-16T08:52:07;14.50;94.80
73438;DHT22;62744;56.802;23.964;2022-10-16T08:54:42;14.40;94.70
73438;DHT22;62744;56.802;23.964;2022-10-16T08:57:20;14.40;94.80
73438;DHT22;62744;56.802;23.964;2022-10-16T08:59:51;14.40;94.90
73438;DHT22;62744;56.802;23.964;2022-10-16T09:05:31;14.70;94.00
73438;DHT22;62744;56.802;23.964;2022-10-16T09:11:08;14.60;94.30
73438;DHT22;62744;56.802;23.964;2022-10-16T09:14:00;14.70;94.40
73438;DHT22;62744;56.802;23.964;2022-10-16T09:16:53;14.60;94.40
73438;DHT22;62744;56.802;23.964;2022-10-16T09:19:38;14.60;94.70
73438;DHT22;62744;56.802;23.964;2022-10-16T09:22:15;14.70;94.90
73438;DHT22;62744;56.802;23.964;2022-10-16T09:24:44;14.70;94.60
73438;DHT22;62744;56.802;23.964;2022-10-16T09:27:13;14.70;94.20
73438;DHT22;62744;56.802;23.964;2022-10-16T09:29:41;14.70;94.50
73438;DHT22;62744;56.802;23.964;2022-10-16T09:32:17;14.60;94.50
73438;DHT22;62744;56.802;23.964;2022-10-16T09:34:54;14.60;94.60
73438;DHT22;62744;56.802;23.964;2022-10-16T09:37:25;14.70;94.40
73438;DHT22;62744;56.802;23.964;2022-10-16T09:39:54;14.60;94.50
73438;DHT22;62744;56.802;23.964;2022-10-16T09:42:32;14.70;94.50
73438;DHT22;62744;56.802;23.964;2022-10-16T09:45:05;14.60;94.10
73438;DHT22;62744;56.802;23.964;2022-10-16T09:47:44;14.60;95.10
73438;DHT22;62744;56.802;23.964;2022-10-16T09:50:27;14.60;94.70
73438;DHT22;62744;56.802;23.964;2022-10-16T09:53:04;14.70;94.70
73438;DHT22;62744;56.802;23.964;2022-10-16T09:55:33;14.70;94.70
73438;DHT22;62744;56.802;23.964;2022-10-16T09:58:02;14.70;94.60
73438;DHT22;62744;56.802;23.964;2022-10-16T10:00:30;14.80;94.60
73438;DHT22;62744;56.802;23.964;2022-10-16T10:03:00;14.80;94.80
73438;DHT22;62744;56.802;23.964;2022-10-16T10:05:28;14.80;94.40
73438;DHT22;62744;56.802;23.964;2022-10-16T10:08:01;14.80;94.40
73438;DHT22;62744;56.802;23.964;2022-10-16T10:10:41;14.80;94.30
73438;DHT22;62744;56.802;23.964;2022-10-16T10:13:24;14.80;94.30
73438;DHT22;62744;56.802;23.964;2022-10-16T10:15:52;14.80;94.00
73438;DHT22;62744;56.802;23.964;2022-10-16T10:18:22;14.80;93.60
73438;DHT22;62744;56.802;23.964;2022-10-16T10:21:01;14.80;94.40
73438;DHT22;62744;56.802;23.964;2022-10-16T10:23:30;14.80;94.10
73438;DHT22;62744;56.802;23.964;2022-10-16T10:26:18;14.90;94.00
73438;DHT22;62744;56.802;23.964;2022-10-16T10:29:06;14.90;94.00
73438;DHT22;62744;56.802;23.964;2022-10-16T10:32:40;15.00;93.90
73438;DHT22;62744;56.802;23.964;2022-10-16T10:38:33;15.00;93.50
73438;DHT22;62744;56.802;23.964;2022-10-16T10:46:37;15.10;94.00
73438;DHT22;62744;56.802;23.964;2022-10-16T10:54:54;15.10;93.30
73438;DHT22;62744;56.802;23.964;2022-10-16T11:00:20;15.20;93.40
73438;DHT22;62744;56.802;23.964;2022-10-16T11:06:23;15.00;93.60
73438;DHT22;62744;56.802;23.964;2022-10-16T11:11:43;15.00;93.70
73438;DHT22;62744;56.802;23.964;2022-10-16T11:14:26;15.00;93.50
73438;DHT22;62744;56.802;23.964;2022-10-16T11:17:13;15.00;93.50
73438;DHT22;62744;56.802;23.964;2022-10-16T11:19:53;15.00;93.50
73438;DHT22;62744;56.802;23.964;2022-10-16T11:22:40;15.00;93.60
73438;DHT22;62744;56.802;23.964;2022-10-16T11:25:29;15.00;93.90
73438;DHT22;62744;56.802;23.964;2022-10-16T11:31:36;15.00;94.40
73438;DHT22;62744;56.802;23.964;2022-10-16T11:34:13;15.00;94.30
73438;DHT22;62744;56.802;23.964;2022-10-16T11:37:08;14.90;94.20
73438;DHT22;62744;56.802;23.964;2022-10-16T11:39:38;15.00;94.50
73438;DHT22;62744;56.802;23.964;2022-10-16T11:42:19;15.10;94.20
73438;DHT22;62744;56.802;23.964;2022-10-16T11:50:23;15.00;94.10
73438;DHT22;62744;56.802;23.964;2022-10-16T11:55:38;15.00;93.50
73438;DHT22;62744;56.802;23.964;2022-10-16T12:11:46;15.40;90.50
73438;DHT22;62744;56.802;23.964;2022-10-16T12:16:56;15.30;92.40
73438;DHT22;62744;56.802;23.964;2022-10-16T12:19:27;15.30;92.40
73438;DHT22;62744;56.802;23.964;2022-10-16T12:22:00;15.20;92.30
73438;DHT22;62744;56.802;23.964;2022-10-16T12:26:55;15.40;92.00
73438;DHT22;62744;56.802;23.964;2022-10-16T12:29:34;15.30;91.60
73438;DHT22;62744;56.802;23.964;2022-10-16T12:35:25;15.10;92.90
73438;DHT22;62744;56.802;23.964;2022-10-16T12:37:54;15.10;93.00
73438;DHT22;62744;56.802;23.964;2022-10-16T12:40:35;15.30;91.90
73438;DHT22;62744;56.802;23.964;2022-10-16T12:43:43;15.30;92.00
73438;DHT22;62744;56.802;23.964;2022-10-16T12:48:40;15.20;92.40
73438;DHT22;62744;56.802;23.964;2022-10-16T12:54:11;15.20;92.70
73438;DHT22;62744;56.802;23.964;2022-10-16T12:59:43;15.20;92.30
73438;DHT22;62744;56.802;23.964;2022-10-16T13:05:25;15.30;92.40
73438;DHT22;62744;56.802;23.964;2022-10-16T13:08:12;15.10;92.40
73438;DHT22;62744;56.802;23.964;2022-10-16T13:19:21;15.00;92.90
73438;DHT22;62744;56.802;23.964;2022-10-16T13:25:04;15.00;93.40
73438;DHT22;62744;56.802;23.964;2022-10-16T13:30:30;15.00;94.40
73438;DHT22;62744;56.802;23.964;2022-10-16T13:32:59;15.00;94.40
73438;DHT22;62744;56.802;23.964;2022-10-16T13:35:32;15.00;94.50
73438;DHT22;62744;56.802;23.964;2022-10-16T13:38:17;15.10;94.60
73438;DHT22;62744;56.802;23.964;2022-10-16T13:43:40;14.90;94.80
73438;DHT22;62744;56.802;23.964;2022-10-16T13:46:14;14.90;94.90
73438;DHT22;62744;56.802;23.964;2022-10-16T13:48:43;14.90;95.20
73438;DHT22;62744;56.802;23.964;2022-10-16T13:51:15;14.90;95.40
73438;DHT22;62744;56.802;23.964;2022-10-16T13:53:44;15.00;95.10
73438;DHT22;62744;56.802;23.964;2022-10-16T13:56:15;15.00;95.00
73438;DHT22;62744;56.802;23.964;2022-10-16T13:58:44;14.80;94.80
73438;DHT22;62744;56.802;23.964;2022-10-16T14:01:23;14.90;95.10
73438;DHT22;62744;56.802;23.964;2022-10-16T14:04:07;14.90;95.70
73438;DHT22;62744;56.802;23.964;2022-10-16T14:06:39;14.90;95.50
73438;DHT22;62744;56.802;23.964;2022-10-16T14:09:23;14.90;95.60
73438;DHT22;62744;56.802;23.964;2022-10-16T14:11:56;14.90;95.80
73438;DHT22;62744;56.802;23.964;2022-10-16T14:14:29;14.90;95.40
73438;DHT22;62744;56.802;23.964;2022-10-16T14:16:58;14.80;95.70
73438;DHT22;62744;56.802;23.964;2022-10-16T14:19:27;14.90;95.90
73438;DHT22;62744;56.802;23.964;2022-10-16T14:21:56;14.80;95.90
73438;DHT22;62744;56.802;23.964;2022-10-16T14:26:58;14.90;96.00
73438;DHT22;62744;56.802;23.964;2022-10-16T14:29:29;14.80;95.90
73438;DHT22;62744;56.802;23.964;2022-10-16T14:32:04;14.90;95.60
73438;DHT22;62744;56.802;23.964;2022-10-16T14:34:36;14.80;96.20
73438;DHT22;62744;56.802;23.964;2022-10-16T14:37:24;14.80;96.50
73438;DHT22;62744;56.802;23.964;2022-10-16T14:39:55;14.90;96.70
73438;DHT22;62744;56.802;23.964;2022-10-16T14:42:25;14.90;96.70
73438;DHT22;62744;56.802;23.964;2022-10-16T14:44:54;14.80;96.90
73438;DHT22;62744;56.802;23.964;2022-10-16T14:47:24;14.80;97.20
73438;DHT22;62744;56.802;23.964;2022-10-16T14:49:54;14.80;97.60
73438;DHT22;62744;56.802;23.964;2022-10-16T14:52:26;14.70;98.30
73438;DHT22;62744;56.802;23.964;2022-10-16T14:54:54;14.60;98.40
73438;DHT22;62744;56.802;23.964;2022-10-16T14:57:27;14.60;98.80
73438;DHT22;62744;56.802;23.964;2022-10-16T14:59:58;14.60;99.10
73438;DHT22;62744;56.802;23.964;2022-10-16T15:02:34;14.50;99.10
73438;DHT22;62744;56.802;23.964;2022-10-16T15:05:27;14.50;99.40
73438;DHT22;62744;56.802;23.964;2022-10-16T15:07:55;14.60;99.50
73438;DHT22;62744;56.802;23.964;2022-10-16T15:10:24;14.60;99.80
73438;DHT22;62744;56.802;23.964;2022-10-16T15:12:53;14.50;99.90
73438;DHT22;62744;56.802;23.964;2022-10-16T15:15:30;14.40;99.90
73438;DHT22;62744;56.802;23.964;2022-10-16T15:17:59;14.40;99.90
73438;DHT22;62744;56.802;23.964;2022-10-16T15:20:30;14.50;99.90
73438;DHT22;62744;56.802;23.964;2022-10-16T15:23:10;14.50;99.90
73438;DHT22;62744;56.802;23.964;2022-10-16T15:28:14;14.70;99.90
73438;DHT22;62744;56.802;23.964;2022-10-16T15:30:43;14.60;99.90
73438;DHT22;62744;56.802;23.964;2022-10-16T15:33:22;14.60;99.90
73438;DHT22;62744;56.802;23.964;2022-10-16T15:35:53;14.60;99.90
73438;DHT22;62744;56.802;23.964;2022-10-16T15:38:22;14.60;99.90
73438;DHT22;62744;56.802;23.964;2022-10-16T15:40:50;14.60;99.90
73438;DHT22;62744;56.802;23.964;2022-10-16T15:43:18;14.50;99.90
73438;DHT22;62744;56.802;23.964;2022-10-16T15:46:06;14.60;99.90
73438;DHT22;62744;56.802;23.964;2022-10-16T15:48:36;14.60;99.90
73438;DHT22;62744;56.802;23.964;2022-10-16T15:51:08;14.60;99.90
73438;DHT22;62744;56.802;23.964;2022-10-16T15:53:37;14.60;99.90
73438;DHT22;62744;56.802;23.964;2022-10-16T15:56:07;14.60;99.90
73438;DHT22;62744;56.802;23.964;2022-10-16T15:58:36;14.50;99.90
73438;DHT22;62744;56.802;23.964;2022-10-16T16:01:06;14.70;99.90
73438;DHT22;62744;56.802;23.964;2022-10-16T16:03:38;14.70;99.90
73438;DHT22;62744;56.802;23.964;2022-10-16T16:06:12;14.70;99.90
73438;DHT22;62744;56.802;23.964;2022-10-16T16:08:41;14.60;99.90
73438;DHT22;62744;56.802;23.964;2022-10-16T16:11:11;14.70;99.90
73438;DHT22;62744;56.802;23.964;2022-10-16T16:13:41;14.70;99.90
73438;DHT22;62744;56.802;23.964;2022-10-16T16:16:13;14.70;99.90
73438;DHT22;62744;56.802;23.964;2022-10-16T16:18:42;14.70;99.90
73438;DHT22;62744;56.802;23.964;2022-10-16T16:21:11;14.70;99.90
73438;DHT22;62744;56.802;23.964;2022-10-16T16:23:42;14.80;99.90
73438;DHT22;62744;56.802;23.964;2022-10-16T16:26:14;14.60;99.90
73438;DHT22;62744;56.802;23.964;2022-10-16T16:28:43;14.70;99.90
73438;DHT22;62744;56.802;23.964;2022-10-16T16:31:13;14.60;99.90
73438;DHT22;62744;56.802;23.964;2022-10-16T16:33:41;14.70;99.90
73438;DHT22;62744;56.802;23.964;2022-10-16T16:36:09;14.80;99.90
73438;DHT22;62744;56.802;23.964;2022-10-16T16:38:42;14.70;99.90
73438;DHT22;62744;56.802;23.964;2022-10-16T16:43:41;14.80;99.90
73438;DHT22;62744;56.802;23.964;2022-10-16T16:46:11;14.80;99.90
73438;DHT22;62744;56.802;23.964;2022-10-16T16:48:39;14.80;99.90
73438;DHT22;62744;56.802;23.964;2022-10-16T16:51:15;14.70;99.90
73438;DHT22;62744;56.802;23.964;2022-10-16T16:53:46;14.80;99.90
73438;DHT22;62744;56.802;23.964;2022-10-16T16:56:15;14.80;99.90
73438;DHT22;62744;56.802;23.964;2022-10-16T16:58:53;14.80;99.90
73438;DHT22;62744;56.802;23.964;2022-10-16T17:01:25;14.70;99.90
73438;DHT22;62744;56.802;23.964;2022-10-16T17:03:57;14.80;99.90
73438;DHT22;62744;56.802;23.964;2022-10-16T17:06:27;14.80;99.90
73438;DHT22;62744;56.802;23.964;2022-10-16T17:08:57;14.70;99.90
73438;DHT22;62744;56.802;23.964;2022-10-16T17:11:26;14.80;99.90
73438;DHT22;62744;56.802;23.964;2022-10-16T17:13:56;14.80;99.90
73438;DHT22;62744;56.802;23.964;2022-10-16T17:16:28;14.80;99.90
73438;DHT22;62744;56.802;23.964;2022-10-16T17:19:00;14.80;99.90
73438;DHT22;62744;56.802;23.964;2022-10-16T17:21:28;14.80;99.90
73438;DHT22;62744;56.802;23.964;2022-10-16T17:23:58;14.80;99.90
73438;DHT22;62744;56.802;23.964;2022-10-16T17:26:26;14.80;99.90
73438;DHT22;62744;56.802;23.964;2022-10-16T17:28:55;14.80;99.90
73438;DHT22;62744;56.802;23.964;2022-10-16T17:31:29;14.80;99.90
73438;DHT22;62744;56.802;23.964;2022-10-16T17:34:05;14.70;99.90
73438;DHT22;62744;56.802;23.964;2022-10-16T17:36:34;14.80;99.90